ANZ81 NZAA-VHHH
Flight info
| Callsign | ANZ81 |
|---|---|
| Flight time | N/A |
| Altitude | 34000 |
| Route | ELNOS G591 MUGEN/N0496F360 DCT 30S169E DCT OSVAR DCT 25S165E 2143S16300E 20S162E/N0496F380 15S159E 1400S15823E 10S156E 0821S15500E 05S153E DCT PIKOK DCT 01N145E 05N140E/N0490F400 DCT ROR R337 TAC B462 MIA W16 AVMUP A461 NOMAN V533 BETTY |
| Aircraft | B789/H-SDE1E2E3FGHIJ2J3J4J5M1RWXY/LB1D1 |
Departure
| Time | 2026-05-04 14:02 |
|---|---|
| Airport | Auckland International Airport (NZAA) |
Arrival
| Time | N/A |
|---|---|
| Airport | Hong Kong International Airport (VHHH) |
| Time | Latitude | Longitude | Altitude | Speed | Heading |
|---|---|---|---|---|---|
| 2026-05-04 13:32 | -37.00781 | 174.78116 | 45 ft | 0 kts | 78° |
| 2026-05-04 13:53 | -37.00785 | 174.78094 | 44 ft | 4 kts | 78° |
| 2026-05-04 13:53 | -37.00791 | 174.78061 | 40 ft | 4 kts | 77° |
| 2026-05-04 13:54 | -37.00787 | 174.78007 | 40 ft | 4 kts | 154° |
| 2026-05-04 13:54 | -37.00763 | 174.77997 | 43 ft | 2 kts | 165° |
| 2026-05-04 13:54 | -37.00756 | 174.77995 | 44 ft | 0 kts | 165° |
| 2026-05-04 13:56 | -37.00761 | 174.77997 | 43 ft | 2 kts | 165° |
| 2026-05-04 13:57 | -37.00779 | 174.78003 | 44 ft | 4 kts | 165° |
| 2026-05-04 13:57 | -37.00818 | 174.78019 | 44 ft | 8 kts | 161° |
| 2026-05-04 13:58 | -37.01049 | 174.78093 | 45 ft | 8 kts | 225° |
| 2026-05-04 13:58 | -37.01110 | 174.77897 | 43 ft | 17 kts | 251° |
| 2026-05-04 13:58 | -37.01149 | 174.77756 | 45 ft | 9 kts | 251° |
| 2026-05-04 13:59 | -37.01186 | 174.77742 | 45 ft | 7 kts | 168° |
| 2026-05-04 13:59 | -37.01243 | 174.77747 | 45 ft | 9 kts | 209° |
| 2026-05-04 13:59 | -37.01316 | 174.77532 | 45 ft | 19 kts | 250° |
| 2026-05-04 14:00 | -37.01366 | 174.77350 | 45 ft | 25 kts | 251° |
| 2026-05-04 14:00 | -37.01551 | 174.77088 | 46 ft | 19 kts | 187° |
| 2026-05-04 14:00 | -37.01609 | 174.77148 | 46 ft | 12 kts | 88° |
| 2026-05-04 14:01 | -37.01571 | 174.77293 | 45 ft | 33 kts | 71° |
| 2026-05-04 14:01 | -37.01425 | 174.77818 | 45 ft | 96 kts | 71° |
| 2026-05-04 14:01 | -37.00735 | 174.80297 | 280 ft | 184 kts | 73° |
| 2026-05-04 14:02 | -37.00305 | 174.81857 | 1102 ft | 197 kts | 71° |
| 2026-05-04 14:02 | -36.99840 | 174.83499 | 2011 ft | 203 kts | 70° |
| 2026-05-04 14:02 | -36.99361 | 174.85191 | 2705 ft | 218 kts | 69° |
| 2026-05-04 14:02 | -36.98841 | 174.87037 | 3346 ft | 234 kts | 69° |
| 2026-05-04 14:03 | -36.98279 | 174.89084 | 3865 ft | 256 kts | 70° |
| 2026-05-04 14:03 | -36.97741 | 174.91142 | 5218 ft | 248 kts | 70° |
| 2026-05-04 14:03 | -36.97165 | 174.93216 | 6137 ft | 255 kts | 69° |
| 2026-05-04 14:03 | -36.96573 | 174.95318 | 7191 ft | 258 kts | 69° |
| 2026-05-04 14:04 | -36.94492 | 174.98935 | 8992 ft | 267 kts | 30° |
| 2026-05-04 14:04 | -36.92725 | 174.99701 | 9904 ft | 274 kts | 7° |
| 2026-05-04 14:04 | -36.90779 | 174.99497 | 10509 ft | 297 kts | 342° |
| 2026-05-04 14:05 | -36.87140 | 174.96195 | 11123 ft | 352 kts | 320° |
| 2026-05-04 14:05 | -36.85925 | 174.94787 | 11315 ft | 368 kts | 319° |
| 2026-05-04 14:05 | -36.83374 | 174.91895 | 12518 ft | 372 kts | 319° |
| 2026-05-04 14:06 | -36.81515 | 174.89660 | 13311 ft | 378 kts | 319° |
| 2026-05-04 14:06 | -36.79548 | 174.87456 | 14219 ft | 382 kts | 319° |
| 2026-05-04 14:06 | -36.77578 | 174.85190 | 15024 ft | 386 kts | 318° |
| 2026-05-04 14:06 | -36.75628 | 174.82865 | 15826 ft | 390 kts | 317° |
| 2026-05-04 14:07 | -36.73651 | 174.80523 | 16588 ft | 394 kts | 318° |
| 2026-05-04 14:07 | -36.71639 | 174.78182 | 17361 ft | 398 kts | 318° |
| 2026-05-04 14:07 | -36.70293 | 174.76620 | 17866 ft | 400 kts | 318° |
| 2026-05-04 14:07 | -36.67560 | 174.73425 | 18861 ft | 405 kts | 318° |
| 2026-05-04 14:08 | -36.65496 | 174.71007 | 19522 ft | 408 kts | 318° |
| 2026-05-04 14:08 | -36.63414 | 174.68578 | 20183 ft | 411 kts | 318° |
| 2026-05-04 14:08 | -36.61314 | 174.66133 | 20837 ft | 415 kts | 318° |
| 2026-05-04 14:08 | -36.59204 | 174.63676 | 21502 ft | 417 kts | 318° |
| 2026-05-04 14:09 | -36.55662 | 174.59552 | 22528 ft | 422 kts | 318° |
| 2026-05-04 14:09 | -36.53507 | 174.57048 | 23129 ft | 425 kts | 318° |
| 2026-05-04 14:10 | -36.49151 | 174.51991 | 24256 ft | 431 kts | 318° |
| 2026-05-04 14:10 | -36.46103 | 174.48819 | 24885 ft | 433 kts | 324° |
| 2026-05-04 14:10 | -36.44488 | 174.47328 | 25201 ft | 434 kts | 324° |
| 2026-05-04 14:10 | -36.42068 | 174.45058 | 25683 ft | 436 kts | 323° |
| 2026-05-04 14:11 | -36.39638 | 174.42781 | 26152 ft | 438 kts | 324° |
| 2026-05-04 14:11 | -36.34736 | 174.38239 | 27050 ft | 442 kts | 324° |
| 2026-05-04 14:11 | -36.32267 | 174.35945 | 27491 ft | 444 kts | 323° |
| 2026-05-04 14:12 | -36.29786 | 174.33638 | 27915 ft | 446 kts | 323° |
| 2026-05-04 14:12 | -36.27292 | 174.31326 | 28336 ft | 448 kts | 324° |
| 2026-05-04 14:12 | -36.22273 | 174.26684 | 29104 ft | 453 kts | 323° |
| 2026-05-04 14:13 | -36.19743 | 174.24342 | 29520 ft | 455 kts | 323° |
| 2026-05-04 14:13 | -36.17201 | 174.21991 | 29903 ft | 457 kts | 323° |
| 2026-05-04 14:13 | -36.14645 | 174.19632 | 30286 ft | 459 kts | 323° |
| 2026-05-04 14:13 | -36.12081 | 174.17268 | 30636 ft | 461 kts | 323° |
| 2026-05-04 14:14 | -36.09506 | 174.14895 | 30925 ft | 463 kts | 323° |
| 2026-05-04 14:14 | -36.04354 | 174.10151 | 31476 ft | 467 kts | 323° |
| 2026-05-04 14:14 | -36.01738 | 174.07747 | 31737 ft | 469 kts | 323° |
| 2026-05-04 14:15 | -35.96476 | 174.02916 | 32301 ft | 472 kts | 323° |
| 2026-05-04 14:15 | -35.91203 | 173.98083 | 32992 ft | 472 kts | 323° |
| 2026-05-04 14:16 | -35.85926 | 173.93254 | 33681 ft | 472 kts | 323° |
| 2026-05-04 14:16 | -35.83287 | 173.90842 | 34046 ft | 472 kts | 323° |
| 2026-05-04 14:17 | -35.77950 | 173.85970 | 34381 ft | 480 kts | 323° |
| 2026-05-04 14:17 | -35.75260 | 173.83518 | 34488 ft | 484 kts | 323° |
| 2026-05-04 14:18 | -35.67136 | 173.76127 | 34483 ft | 481 kts | 323° |
| 2026-05-04 14:19 | -35.53531 | 173.63788 | 34487 ft | 479 kts | 323° |
| 2026-05-04 14:19 | -35.31950 | 173.44327 | 34460 ft | 484 kts | 322° |
| 2026-05-04 14:20 | -35.10188 | 173.24836 | 34463 ft | 484 kts | 322° |
| 2026-05-04 14:20 | -34.88328 | 173.05388 | 34455 ft | 487 kts | 322° |
| 2026-05-04 14:21 | -34.55473 | 172.76404 | 34438 ft | 486 kts | 322° |
| 2026-05-04 14:21 | -34.33554 | 172.57227 | 34426 ft | 486 kts | 322° |
| 2026-05-04 14:22 | -34.12044 | 172.37571 | 34426 ft | 485 kts | 320° |
| 2026-05-04 14:22 | -33.90690 | 172.17521 | 34425 ft | 485 kts | 320° |
| 2026-05-04 14:23 | -33.58656 | 171.87718 | 34404 ft | 485 kts | 320° |
| 2026-05-04 14:24 | -33.37254 | 171.67968 | 34394 ft | 485 kts | 320° |
| 2026-05-04 14:24 | -33.15698 | 171.48201 | 34388 ft | 489 kts | 320° |
| 2026-05-04 14:25 | -32.94071 | 171.28496 | 34383 ft | 490 kts | 320° |
| 2026-05-04 14:25 | -32.61333 | 170.98903 | 34363 ft | 492 kts | 320° |
| 2026-05-04 14:26 | -32.39491 | 170.79313 | 34360 ft | 492 kts | 319° |
| 2026-05-04 14:26 | -32.17602 | 170.59803 | 34343 ft | 492 kts | 320° |
| 2026-05-04 14:27 | -31.95688 | 170.40391 | 34326 ft | 492 kts | 319° |
| 2026-05-04 14:27 | -31.72514 | 170.22915 | 34336 ft | 496 kts | 325° |
| 2026-05-04 14:28 | -31.48926 | 170.05786 | 34322 ft | 499 kts | 324° |
| 2026-05-04 14:28 | -31.25218 | 169.88683 | 34312 ft | 501 kts | 323° |
| 2026-05-04 14:29 | -30.77575 | 169.54619 | 34280 ft | 505 kts | 322° |
| 2026-05-04 14:30 | -30.53571 | 169.37607 | 34265 ft | 505 kts | 321° |
| 2026-05-04 14:31 | -30.17412 | 169.12171 | 34249 ft | 506 kts | 321° |
| 2026-05-04 14:32 | -29.69358 | 168.78138 | 34235 ft | 507 kts | 320° |